createdAt,value
2023-01-05T00:00:20.780Z,3.10
2023-01-05T00:02:47.954Z,4.67
2023-01-05T00:05:15.090Z,2.20
2023-01-05T00:07:43.295Z,2.90
2023-01-05T00:10:30.409Z,3.10
2023-01-05T00:13:16.052Z,2.77
2023-01-05T00:16:01.967Z,1.43
2023-01-05T00:18:47.717Z,1.73
2023-01-05T00:21:34.816Z,2.10
2023-01-05T00:24:01.929Z,2.40
2023-01-05T00:26:29.027Z,2.73
2023-01-05T00:28:56.164Z,1.70
2023-01-05T00:31:23.288Z,4.73
2023-01-05T00:33:50.446Z,4.53
2023-01-05T00:36:17.561Z,2.03
2023-01-05T00:38:44.646Z,2.63
2023-01-05T00:41:11.775Z,2.87
2023-01-05T00:43:38.885Z,3.87
2023-01-05T00:46:06.146Z,3.40
2023-01-05T00:48:33.351Z,1.80
2023-01-05T00:51:00.493Z,2.57
2023-01-05T00:53:27.588Z,1.70
2023-01-05T00:55:58.367Z,3.23
2023-01-05T00:58:25.535Z,1.80
2023-01-05T01:00:52.681Z,1.57
2023-01-05T01:03:19.943Z,3.93
2023-01-05T01:05:47.132Z,1.33
2023-01-05T01:08:14.214Z,3.57
2023-01-05T01:10:41.394Z,1.73
2023-01-05T01:13:08.580Z,3.07
2023-01-05T01:15:36.576Z,1.67
2023-01-05T01:18:03.730Z,1.00
2023-01-05T01:20:30.953Z,0.70
2023-01-05T01:23:00.362Z,0.60
2023-01-05T01:25:28.120Z,1.73
2023-01-05T01:27:55.280Z,1.50
2023-01-05T01:30:22.500Z,0.53
2023-01-05T01:32:49.623Z,3.20
2023-01-05T01:35:16.739Z,1.33
2023-01-05T01:37:43.960Z,2.27
2023-01-05T01:40:11.386Z,2.60
2023-01-05T01:42:38.512Z,1.40
2023-01-05T01:45:15.005Z,2.03
2023-01-05T01:47:48.430Z,0.90
2023-01-05T01:50:15.933Z,2.73
2023-01-05T01:52:44.222Z,2.50
2023-01-05T01:55:11.534Z,3.90
2023-01-05T01:57:39.358Z,1.90
2023-01-05T02:00:08.450Z,1.60
2023-01-05T02:02:35.760Z,3.70
2023-01-05T02:05:05.065Z,2.53
2023-01-05T02:07:33.923Z,2.17
2023-01-05T02:10:01.755Z,1.77
2023-01-05T02:12:38.117Z,2.10
2023-01-05T02:15:05.179Z,0.80
2023-01-05T02:17:38.068Z,1.70
2023-01-05T02:20:07.995Z,1.50
2023-01-05T02:22:54.284Z,1.43
2023-01-05T02:25:24.389Z,1.37
2023-01-05T02:28:00.346Z,1.27
2023-01-05T02:30:46.138Z,0.93
2023-01-05T02:33:26.124Z,2.07
2023-01-05T02:36:03.123Z,0.70
2023-01-05T02:38:36.389Z,2.90
2023-01-05T02:41:13.991Z,2.57
2023-01-05T02:43:43.840Z,1.37
2023-01-05T02:46:10.981Z,1.37
2023-01-05T02:48:38.512Z,0.87
2023-01-05T02:51:08.557Z,0.93
2023-01-05T02:53:41.024Z,1.40
2023-01-05T02:56:14.357Z,1.97
2023-01-05T02:58:44.159Z,1.17
2023-01-05T03:01:13.870Z,1.30
2023-01-05T03:03:43.585Z,1.43
2023-01-05T03:06:31.024Z,1.20
2023-01-05T03:09:00.306Z,1.87
2023-01-05T03:11:51.077Z,0.97
2023-01-05T03:14:23.725Z,1.67
2023-01-05T03:16:51.877Z,3.10
2023-01-05T03:19:41.447Z,1.97
2023-01-05T03:22:33.175Z,1.43
2023-01-05T03:25:19.279Z,0.50
2023-01-05T03:28:06.743Z,2.00
2023-01-05T03:31:12.820Z,1.10
2023-01-05T03:34:24.738Z,2.30
2023-01-05T03:37:02.227Z,2.30
2023-01-05T03:39:30.817Z,4.43
2023-01-05T03:41:58.540Z,2.67
2023-01-05T03:44:25.679Z,6.00
2023-01-05T03:46:52.867Z,5.40
2023-01-05T03:49:20.030Z,6.43
2023-01-05T03:51:47.144Z,6.50
2023-01-05T03:54:14.244Z,4.43
2023-01-05T03:56:41.353Z,7.43
2023-01-05T03:59:08.478Z,11.57
2023-01-05T04:01:35.707Z,10.10
2023-01-05T04:04:02.967Z,7.40
2023-01-05T04:06:30.235Z,5.00
2023-01-05T04:08:57.352Z,5.40
2023-01-05T04:11:24.778Z,6.93
2023-01-05T04:13:52.369Z,9.33
2023-01-05T04:16:19.840Z,6.20
2023-01-05T04:18:47.065Z,6.70
2023-01-05T04:21:14.197Z,6.63
2023-01-05T04:23:41.317Z,5.27
2023-01-05T04:26:08.491Z,7.80
2023-01-05T04:28:35.640Z,8.80
2023-01-05T04:31:02.811Z,6.03
2023-01-05T04:33:30.007Z,7.00
2023-01-05T04:35:57.195Z,8.70
2023-01-05T04:38:24.294Z,12.17
2023-01-05T04:40:51.932Z,9.27
2023-01-05T04:43:19.967Z,11.53
2023-01-05T04:45:48.214Z,9.77
2023-01-05T04:48:15.963Z,10.20
2023-01-05T04:50:43.139Z,12.43
2023-01-05T04:53:10.655Z,10.10
2023-01-05T04:55:37.805Z,12.97
2023-01-05T04:58:10.067Z,12.63
2023-01-05T05:00:39.234Z,12.30
2023-01-05T05:03:06.559Z,11.20
2023-01-05T05:05:33.804Z,9.90
2023-01-05T05:08:00.937Z,11.40
2023-01-05T05:10:28.532Z,13.90
2023-01-05T05:12:55.684Z,15.93
2023-01-05T05:15:22.774Z,12.40
2023-01-05T05:17:49.861Z,14.63
2023-01-05T05:20:17.041Z,13.70
2023-01-05T05:22:44.154Z,14.03
2023-01-05T05:25:11.251Z,14.07
2023-01-05T05:27:38.354Z,15.50
2023-01-05T05:30:06.026Z,15.17
2023-01-05T05:32:33.176Z,15.27
2023-01-05T05:35:00.287Z,14.67
2023-01-05T05:37:27.400Z,16.30
2023-01-05T05:39:54.488Z,14.77
2023-01-05T05:42:21.638Z,19.27
2023-01-05T05:44:48.753Z,17.63
2023-01-05T05:47:16.084Z,13.63
2023-01-05T05:49:43.258Z,12.57
2023-01-05T05:52:10.403Z,12.13
2023-01-05T05:54:37.493Z,15.67
2023-01-05T05:57:04.589Z,15.77
2023-01-05T05:59:31.701Z,14.43
2023-01-05T06:01:58.894Z,15.83
2023-01-05T06:04:26.150Z,14.70
2023-01-05T06:06:53.251Z,22.67
2023-01-05T06:09:20.347Z,16.77
2023-01-05T06:11:47.542Z,14.63
2023-01-05T06:14:15.023Z,14.07
2023-01-05T06:16:42.219Z,16.17
2023-01-05T06:19:10.156Z,16.63
2023-01-05T06:21:37.328Z,17.33
2023-01-05T06:24:04.510Z,18.63
2023-01-05T06:26:31.609Z,15.40
2023-01-05T06:28:58.700Z,15.70
2023-01-05T06:31:25.849Z,18.07
2023-01-05T06:33:53.001Z,20.73
2023-01-05T06:36:20.318Z,18.00
2023-01-05T06:38:47.438Z,18.47
2023-01-05T06:41:14.607Z,18.50
2023-01-05T06:43:41.715Z,18.97
2023-01-05T06:46:08.940Z,17.90
2023-01-05T06:48:36.071Z,15.23
2023-01-05T06:51:03.189Z,19.67
2023-01-05T06:53:30.311Z,15.80
2023-01-05T06:55:57.443Z,13.43
2023-01-05T06:58:24.569Z,14.70
2023-01-05T07:00:51.679Z,17.47
2023-01-05T07:03:18.828Z,14.00
2023-01-05T07:05:45.931Z,19.37
2023-01-05T07:08:13.072Z,14.70
2023-01-05T07:10:40.187Z,14.03
2023-01-05T07:13:07.326Z,17.47
2023-01-05T07:15:34.499Z,19.93
2023-01-05T07:18:01.593Z,19.07
2023-01-05T07:20:28.790Z,20.03
2023-01-05T07:22:55.930Z,16.87
2023-01-05T07:25:23.547Z,17.53
2023-01-05T07:27:52.244Z,15.77
2023-01-05T07:30:19.626Z,15.43
2023-01-05T07:32:46.741Z,21.07
2023-01-05T07:35:13.853Z,19.03
2023-01-05T07:37:40.959Z,19.87
2023-01-05T07:40:08.391Z,14.80
2023-01-05T07:42:35.477Z,18.03
2023-01-05T07:45:02.756Z,15.93
2023-01-05T07:47:29.938Z,21.83
2023-01-05T07:49:57.048Z,15.50
2023-01-05T07:52:24.184Z,20.80
2023-01-05T07:54:51.284Z,19.57
2023-01-05T07:57:18.432Z,18.00
2023-01-05T07:59:45.548Z,16.07
2023-01-05T08:02:12.729Z,16.10
2023-01-05T08:04:39.923Z,22.43
2023-01-05T08:07:11.219Z,15.40
2023-01-05T08:09:57.420Z,15.80
2023-01-05T08:12:24.566Z,15.07
2023-01-05T08:14:51.717Z,15.73
2023-01-05T08:17:18.881Z,17.33
2023-01-05T08:19:46.016Z,13.37
2023-01-05T08:22:13.336Z,12.80
2023-01-05T08:24:40.491Z,19.30
2023-01-05T08:27:07.690Z,18.10
2023-01-05T08:29:34.943Z,18.23
2023-01-05T08:32:02.142Z,16.30
2023-01-05T08:34:34.420Z,16.07
2023-01-05T08:37:02.132Z,15.77
2023-01-05T08:39:29.227Z,17.07
2023-01-05T08:42:02.132Z,15.20
2023-01-05T08:44:29.794Z,17.93
2023-01-05T08:46:56.923Z,14.53
2023-01-05T08:49:24.196Z,12.90
2023-01-05T08:51:51.318Z,15.03
2023-01-05T08:54:18.494Z,11.47
2023-01-05T08:56:45.640Z,15.93
2023-01-05T08:59:13.730Z,15.20
2023-01-05T09:01:40.905Z,15.53
2023-01-05T09:04:08.453Z,10.70
2023-01-05T09:06:35.551Z,14.20
2023-01-05T09:09:02.685Z,17.67
2023-01-05T09:11:29.840Z,14.70
2023-01-05T09:13:58.400Z,12.53
2023-01-05T09:17:06.065Z,13.37
2023-01-05T09:19:14.674Z,15.40
2023-01-05T09:21:41.955Z,14.50
2023-01-05T09:24:12.870Z,12.70
2023-01-05T09:26:40.430Z,10.57
2023-01-05T09:29:07.537Z,15.00
2023-01-05T09:31:34.832Z,16.07
2023-01-05T09:34:02.011Z,18.57
2023-01-05T09:36:29.223Z,16.67
2023-01-05T09:38:57.178Z,13.40
2023-01-05T09:41:26.353Z,11.30
2023-01-05T09:43:56.409Z,9.70
2023-01-05T09:46:52.866Z,16.00
2023-01-05T09:49:22.099Z,12.30
2023-01-05T09:51:52.000Z,12.93
2023-01-05T09:54:19.843Z,12.57
2023-01-05T09:59:37.088Z,14.37
2023-01-05T10:02:15.047Z,13.63
2023-01-05T10:04:42.353Z,22.03
2023-01-05T10:07:17.302Z,14.77
2023-01-05T10:09:46.626Z,15.80
2023-01-05T10:12:32.587Z,12.07
2023-01-05T10:15:02.718Z,16.27
2023-01-05T10:17:42.281Z,16.10
2023-01-05T10:20:13.741Z,12.87
2023-01-05T10:22:47.562Z,13.87
2023-01-05T10:25:26.876Z,20.40
2023-01-05T10:28:02.130Z,12.73
2023-01-05T10:30:50.662Z,13.70
2023-01-05T10:33:35.721Z,18.17
2023-01-05T10:36:14.509Z,16.73
2023-01-05T10:38:54.080Z,13.73
2023-01-05T10:41:24.116Z,18.70
2023-01-05T10:44:07.220Z,14.37
2023-01-05T10:46:41.631Z,18.27
2023-01-05T10:49:17.151Z,21.00
2023-01-05T10:51:45.364Z,17.20
2023-01-05T10:54:27.422Z,12.40
2023-01-05T10:56:54.547Z,17.47
2023-01-05T10:59:21.773Z,15.03
2023-01-05T11:01:50.262Z,16.43
2023-01-05T11:04:34.900Z,18.87
2023-01-05T11:07:04.157Z,15.30
2023-01-05T11:09:31.392Z,17.77
2023-01-05T11:12:03.344Z,17.57
2023-01-05T11:14:33.110Z,13.53
2023-01-05T11:17:07.628Z,14.63
2023-01-05T11:19:41.804Z,14.73
2023-01-05T11:22:28.877Z,17.60
2023-01-05T11:25:13.520Z,17.20
2023-01-05T11:27:40.823Z,14.10
2023-01-05T11:30:16.844Z,16.63
2023-01-05T11:32:44.519Z,17.93
2023-01-05T11:35:22.562Z,15.77
2023-01-05T11:37:49.764Z,18.67
2023-01-05T11:40:18.034Z,27.93
2023-01-05T11:42:45.345Z,17.77
2023-01-05T11:45:29.507Z,17.70
2023-01-05T11:47:58.516Z,17.00
2023-01-05T11:50:27.613Z,18.30
2023-01-05T11:52:55.947Z,14.93
2023-01-05T11:55:27.758Z,18.53
2023-01-05T11:58:00.094Z,20.17
2023-01-05T12:00:53.855Z,12.63
2023-01-05T12:03:30.032Z,15.57
2023-01-05T12:05:58.014Z,15.07
2023-01-05T12:08:31.594Z,17.20
2023-01-05T12:11:16.375Z,17.50
2023-01-05T12:13:43.449Z,20.13
2023-01-05T12:16:19.262Z,17.80
2023-01-05T12:18:47.119Z,18.90
2023-01-05T12:21:19.193Z,20.53
2023-01-05T12:23:52.018Z,18.00
2023-01-05T12:26:22.323Z,15.67
2023-01-05T12:30:09.085Z,18.70
2023-01-05T12:34:58.085Z,17.10
2023-01-05T12:37:34.239Z,16.53
2023-01-05T12:40:07.301Z,15.83
2023-01-05T12:42:40.331Z,19.27
2023-01-05T12:45:26.692Z,19.23
2023-01-05T12:48:16.509Z,19.37
2023-01-05T12:50:47.226Z,22.43
2023-01-05T12:53:14.306Z,20.37
2023-01-05T12:55:43.540Z,19.73
2023-01-05T12:58:14.627Z,15.07
2023-01-05T13:00:46.202Z,17.67
2023-01-05T13:03:22.497Z,18.23
2023-01-05T13:05:53.872Z,22.83
2023-01-05T13:08:24.782Z,18.90
2023-01-05T13:10:57.726Z,20.60
2023-01-05T13:13:35.217Z,14.97
2023-01-05T13:16:02.299Z,18.60
2023-01-05T13:18:30.555Z,19.30
2023-01-05T13:21:02.822Z,21.37
2023-01-05T13:23:32.006Z,18.37
2023-01-05T13:26:02.518Z,20.10
2023-01-05T13:28:31.425Z,18.27
2023-01-05T13:31:09.564Z,19.90
2023-01-05T13:33:38.018Z,15.00
2023-01-05T13:36:25.376Z,20.63
2023-01-05T13:39:07.767Z,16.30
2023-01-05T13:41:47.054Z,21.03
2023-01-05T13:44:32.987Z,21.90
2023-01-05T13:47:14.328Z,20.17
2023-01-05T13:49:44.193Z,18.20
2023-01-05T13:52:20.581Z,19.10
2023-01-05T13:55:00.563Z,18.00
2023-01-05T13:57:29.949Z,22.43
2023-01-05T14:00:12.030Z,16.27
2023-01-05T14:02:43.906Z,22.20
2023-01-05T14:05:24.840Z,19.67
2023-01-05T14:07:52.777Z,17.60
2023-01-05T14:10:21.686Z,21.10
2023-01-05T14:12:49.991Z,20.20
2023-01-05T14:15:36.457Z,21.10
2023-01-05T14:18:04.629Z,16.07
2023-01-05T14:20:34.804Z,18.63
2023-01-05T14:23:02.740Z,16.47
2023-01-05T14:25:38.914Z,21.57
2023-01-05T14:28:18.533Z,16.73
2023-01-05T14:30:45.780Z,14.40
2023-01-05T14:33:13.083Z,20.77
2023-01-05T14:35:40.311Z,17.33
2023-01-05T14:38:25.088Z,18.03
2023-01-05T14:40:55.759Z,17.77
2023-01-05T14:43:36.330Z,16.60
2023-01-05T14:46:05.670Z,21.33
2023-01-05T14:48:35.131Z,15.63
2023-01-05T14:51:16.757Z,16.37
2023-01-05T14:53:45.707Z,15.50
2023-01-05T14:56:17.761Z,16.10
2023-01-05T14:58:44.894Z,21.17
2023-01-05T15:01:17.920Z,16.93
2023-01-05T15:03:48.105Z,18.23
2023-01-05T15:06:33.628Z,15.37
2023-01-05T15:09:00.718Z,20.97
2023-01-05T15:11:27.780Z,17.67
2023-01-05T15:14:26.187Z,18.93
2023-01-05T15:16:53.256Z,20.23
2023-01-05T15:19:35.715Z,22.43
2023-01-05T15:22:13.402Z,16.63
2023-01-05T15:25:08.498Z,21.13
2023-01-05T15:27:54.149Z,19.27
2023-01-05T15:30:38.574Z,17.97
2023-01-05T15:33:10.816Z,16.63
2023-01-05T15:35:43.142Z,22.50
2023-01-05T15:38:29.979Z,19.53
2023-01-05T15:41:08.790Z,21.10
2023-01-05T15:43:37.917Z,15.80
2023-01-05T15:46:05.237Z,18.37
2023-01-05T15:48:32.821Z,22.30
2023-01-05T15:51:02.021Z,23.77
2023-01-05T15:53:29.534Z,19.67
2023-01-05T15:55:57.780Z,22.23
2023-01-05T15:58:25.789Z,15.93
2023-01-05T16:01:03.467Z,16.43
2023-01-05T16:03:32.721Z,23.50
2023-01-05T16:06:01.308Z,19.87
2023-01-05T16:08:28.509Z,22.47
2023-01-05T16:10:59.561Z,20.60
2023-01-05T16:13:33.099Z,22.43
2023-01-05T16:16:01.238Z,17.47
2023-01-05T16:18:40.925Z,17.33
2023-01-05T16:21:21.299Z,20.33
2023-01-05T16:23:55.213Z,18.77
2023-01-05T16:26:22.776Z,19.47
2023-01-05T16:28:49.896Z,19.50
2023-01-05T16:31:26.114Z,19.83
2023-01-05T16:34:06.944Z,18.40
2023-01-05T16:36:34.067Z,20.80
2023-01-05T16:39:19.866Z,18.23
2023-01-05T16:42:05.456Z,23.07
2023-01-05T16:44:34.367Z,17.43
2023-01-05T16:47:06.221Z,21.80
2023-01-05T16:49:43.659Z,21.80
2023-01-05T16:52:23.971Z,30.07
2023-01-05T16:55:16.948Z,24.80
2023-01-05T16:57:47.009Z,24.90
2023-01-05T17:00:26.740Z,22.10
2023-01-05T17:02:54.347Z,17.47
2023-01-05T17:05:25.642Z,21.93
2023-01-05T17:07:59.107Z,25.07
2023-01-05T17:10:26.788Z,21.73
2023-01-05T17:13:06.711Z,24.40
2023-01-05T17:15:36.187Z,23.13
2023-01-05T17:18:29.671Z,23.70
2023-01-05T17:20:57.948Z,20.33
2023-01-05T17:23:28.091Z,22.50
2023-01-05T17:25:57.311Z,15.63
2023-01-05T17:28:24.723Z,27.10
2023-01-05T17:30:52.667Z,26.17
2023-01-05T17:33:20.238Z,22.73
2023-01-05T17:38:20.058Z,22.37
2023-01-05T17:40:47.344Z,23.77
2023-01-05T17:43:14.477Z,25.50
2023-01-05T17:45:43.882Z,24.93
2023-01-05T17:50:39.140Z,22.40
2023-01-05T17:53:06.218Z,23.37
2023-01-05T17:55:33.967Z,25.50
2023-01-05T17:58:01.972Z,20.00
2023-01-05T18:00:33.224Z,25.17
2023-01-05T18:03:00.346Z,16.87
2023-01-05T18:05:27.420Z,27.17
2023-01-05T18:07:54.554Z,23.00
2023-01-05T18:10:23.127Z,24.33
2023-01-05T18:12:50.682Z,24.40
2023-01-05T18:15:18.519Z,27.93
2023-01-05T18:17:45.660Z,27.67
2023-01-05T18:20:14.405Z,24.37
2023-01-05T18:22:41.928Z,27.57
2023-01-05T18:25:09.255Z,24.93
2023-01-05T18:27:36.379Z,19.53
2023-01-05T18:30:04.502Z,22.67
2023-01-05T18:32:31.701Z,21.20
2023-01-05T18:34:58.824Z,21.83
2023-01-05T18:39:58.039Z,22.30
2023-01-05T18:42:26.525Z,25.83
2023-01-05T18:44:53.726Z,24.50
2023-01-05T18:47:20.908Z,22.70
2023-01-05T18:49:47.991Z,21.63
2023-01-05T18:52:15.158Z,25.33
2023-01-05T18:54:42.484Z,25.17
2023-01-05T18:57:09.576Z,19.87
2023-01-05T18:59:36.788Z,22.50
2023-01-05T19:02:03.964Z,27.00
2023-01-05T19:04:31.084Z,24.73
2023-01-05T19:06:58.221Z,23.47
2023-01-05T19:09:25.300Z,20.63
2023-01-05T19:11:52.447Z,25.67
2023-01-05T19:14:19.683Z,20.07
2023-01-05T19:16:48.878Z,23.53
2023-01-05T19:19:16.340Z,24.67
2023-01-05T19:21:45.618Z,21.30
2023-01-05T19:24:16.955Z,20.77
2023-01-05T19:26:44.676Z,19.90
2023-01-05T19:29:12.259Z,26.50
2023-01-05T19:31:39.741Z,23.37
2023-01-05T19:34:06.848Z,18.60
2023-01-05T19:36:35.578Z,23.33
2023-01-05T19:39:07.587Z,27.17
2023-01-05T19:41:35.237Z,20.93
2023-01-05T19:44:02.326Z,21.80
2023-01-05T19:46:29.729Z,25.47
2023-01-05T19:48:59.116Z,28.40
2023-01-05T19:51:28.204Z,29.37
2023-01-05T19:53:59.600Z,24.43
2023-01-05T19:56:28.223Z,23.03
2023-01-05T19:58:57.856Z,23.27
2023-01-05T20:01:25.565Z,27.67
2023-01-05T20:03:52.993Z,23.77
2023-01-05T20:06:21.693Z,20.03
2023-01-05T20:08:53.338Z,26.17
2023-01-05T20:11:35.608Z,22.90
2023-01-05T20:14:03.903Z,24.60
2023-01-05T20:16:31.559Z,27.40
2023-01-05T20:18:58.961Z,22.67
2023-01-05T20:21:26.333Z,24.57
2023-01-05T20:23:53.431Z,26.77
2023-01-05T20:26:21.802Z,21.20
2023-01-05T20:28:49.348Z,26.83
2023-01-05T20:31:16.454Z,22.33
2023-01-05T20:33:43.582Z,25.43
2023-01-05T20:36:10.799Z,20.17
2023-01-05T20:38:37.882Z,20.80
2023-01-05T20:41:19.117Z,26.53
2023-01-05T20:43:46.955Z,21.90
2023-01-05T20:46:15.019Z,28.93
2023-01-05T20:48:42.396Z,22.17
2023-01-05T20:51:10.306Z,22.93
2023-01-05T20:53:37.804Z,21.43
2023-01-05T20:56:09.358Z,22.73
2023-01-05T20:58:36.644Z,21.43
2023-01-05T21:01:10.323Z,24.07
2023-01-05T21:03:39.053Z,21.93
2023-01-05T21:06:07.144Z,23.33
2023-01-05T21:08:34.252Z,21.73
2023-01-05T21:11:02.025Z,28.50
2023-01-05T21:13:31.307Z,22.20
2023-01-05T21:16:05.323Z,24.77
2023-01-05T21:18:33.135Z,27.57
2023-01-05T21:21:00.261Z,22.50
2023-01-05T21:23:27.366Z,25.57
2023-01-05T21:26:05.751Z,25.10
2023-01-05T21:28:35.585Z,28.83
2023-01-05T21:31:06.769Z,18.00
2023-01-05T21:33:34.766Z,22.07
2023-01-05T21:36:01.990Z,29.80
2023-01-05T21:39:00.934Z,18.13
2023-01-05T21:41:16.248Z,25.07
2023-01-05T21:43:43.366Z,21.87
2023-01-05T21:46:14.549Z,21.53
2023-01-05T21:48:41.667Z,21.37
2023-01-05T21:51:28.455Z,20.57
2023-01-05T21:54:14.396Z,20.73
2023-01-05T21:56:44.431Z,26.07
2023-01-05T21:59:11.558Z,19.93
2023-01-05T22:01:39.294Z,20.17
2023-01-05T22:04:06.776Z,22.80
2023-01-05T22:06:33.974Z,20.23
2023-01-05T22:09:01.126Z,22.03
2023-01-05T22:11:28.246Z,22.53
2023-01-05T22:13:55.374Z,19.43
2023-01-05T22:16:22.467Z,20.83
2023-01-05T22:18:49.647Z,22.83
2023-01-05T22:21:17.021Z,26.00
2023-01-05T22:23:44.355Z,24.20
2023-01-05T22:26:12.986Z,17.97
2023-01-05T22:28:41.484Z,20.00
2023-01-05T22:31:10.304Z,14.47
2023-01-05T22:33:38.616Z,16.77
2023-01-05T22:36:06.192Z,17.67
2023-01-05T22:38:35.406Z,20.50
2023-01-05T22:41:02.944Z,20.33
2023-01-05T22:43:30.068Z,18.03
2023-01-05T22:46:04.392Z,14.37
2023-01-05T22:48:35.475Z,17.97
2023-01-05T22:51:03.843Z,12.73
2023-01-05T22:53:31.096Z,12.73
2023-01-05T22:55:58.525Z,17.33
2023-01-05T22:58:25.649Z,14.40
2023-01-05T23:00:52.787Z,14.87
2023-01-05T23:03:21.050Z,16.50
2023-01-05T23:05:48.463Z,11.57
2023-01-05T23:08:15.647Z,14.67
2023-01-05T23:10:42.805Z,10.43
2023-01-05T23:13:10.038Z,12.90
2023-01-05T23:15:37.124Z,16.07
2023-01-05T23:18:04.261Z,12.67
2023-01-05T23:20:31.649Z,14.53
2023-01-05T23:22:58.730Z,10.53
2023-01-05T23:25:25.823Z,12.80
2023-01-05T23:27:54.463Z,11.27
2023-01-05T23:30:21.570Z,10.63
2023-01-05T23:32:48.682Z,11.67
2023-01-05T23:35:15.847Z,9.23
2023-01-05T23:37:42.987Z,10.73
2023-01-05T23:40:10.329Z,11.07
2023-01-05T23:42:43.481Z,11.07
2023-01-05T23:45:10.725Z,11.13
2023-01-05T23:47:37.869Z,10.53
2023-01-05T23:50:05.303Z,15.57
2023-01-05T23:52:32.574Z,12.07
2023-01-05T23:54:59.670Z,11.27
2023-01-05T23:57:26.787Z,12.63
2023-01-05T23:59:53.900Z,13.57
